Time;durP1;ratioP1;P1;durP2;ratioP2;P2;SDS_P1;SDS_P2;PMS_P1;PMS_P2;Temp;Humidity;BMP_temperature;BMP_pressure;BME280_temperature;BME280_humidity;BME280_pressure;Samples;Min_cycle;Max_cycle;Signal;HPM_P1;HPM_P2
2022/03/06 00:02:12;;;;;;;35.13;18.63;;;;;;;5.77;65.05;101330.72;5033925;28;20202;-79
2022/03/06 00:04:39;;;;;;;30.03;18.40;;;;;;;5.79;64.40;101327.66;5034046;28;20176;-79
2022/03/06 00:07:04;;;;;;;37.73;20.20;;;;;;;5.71;64.49;101318.19;5031906;28;20183;-80
2022/03/06 00:09:30;;;;;;;33.42;18.40;;;;;;;5.72;63.88;101327.63;5033459;28;20175;-79
2022/03/06 00:11:56;;;;;;;36.00;19.30;;;;;;;5.46;63.94;101270.19;5033678;28;20207;-81
2022/03/06 00:14:21;;;;;;;33.80;18.77;;;;;;;5.67;63.36;101323.63;5033804;28;20535;-81
2022/03/06 00:16:47;;;;;;;31.45;17.33;;;;;;;5.58;63.14;101312.34;5031923;28;20761;-78
2022/03/06 00:19:13;;;;;;;31.35;18.30;;;;;;;5.65;62.82;101321.63;5031934;28;20290;-80
2022/03/06 00:21:39;;;;;;;31.50;18.10;;;;;;;5.64;61.57;101320.72;5033388;28;20241;-79
2022/03/06 00:24:06;;;;;;;26.63;16.00;;;;;;;5.64;60.93;101317.25;5035214;28;20179;-79
2022/03/06 00:26:32;;;;;;;31.47;17.57;;;;;;;5.60;60.97;101312.53;5037154;28;20180;-78
2022/03/06 00:28:59;;;;;;;30.00;16.20;;;;;;;5.62;59.79;101311.09;5037174;28;20187;-78
2022/03/06 00:31:27;;;;;;;26.30;16.20;;;;;;;5.46;59.55;101286.34;5036804;28;20176;-78
2022/03/06 00:33:52;;;;;;;31.90;15.63;;;;;;;5.58;59.12;101317.44;5039343;28;20219;-78
2022/03/06 00:36:18;;;;;;;24.98;15.15;;;;;;;5.61;58.84;101322.91;5040837;28;20242;-79
2022/03/06 00:38:47;;;;;;;27.57;15.33;;;;;;;5.52;58.97;101301.44;5037895;28;20196;-78
2022/03/06 00:41:14;;;;;;;23.43;14.40;;;;;;;5.54;58.89;101315.22;5040669;28;20206;-78
2022/03/06 00:43:40;;;;;;;24.20;14.57;;;;;;;5.52;57.93;101306.53;5038431;28;20252;-80
2022/03/06 00:46:06;;;;;;;25.48;14.35;;;;;;;5.55;58.41;101317.97;5037594;28;20259;-79
2022/03/06 00:48:32;;;;;;;27.20;15.23;;;;;;;5.56;57.98;101323.97;5039358;28;20176;-80
2022/03/06 00:50:57;;;;;;;24.88;13.60;;;;;;;5.51;57.85;101323.41;5041163;28;20233;-78
2022/03/06 00:53:23;;;;;;;26.52;14.70;;;;;;;5.54;56.96;101328.88;5042153;28;20600;-78
2022/03/06 00:55:49;;;;;;;28.20;14.67;;;;;;;5.31;57.28;101287.94;5042797;28;20183;-79
2022/03/06 00:58:14;;;;;;;20.67;12.67;;;;;;;5.53;56.92;101324.50;5043056;28;20207;-77
2022/03/06 01:00:45;;;;;;;23.43;14.13;;;;;;;5.54;56.80;101336.50;5050117;28;20180;-77
2022/03/06 01:03:16;;;;;;;25.53;14.33;;;;;;;5.50;56.16;101323.22;5052848;28;20255;-79
2022/03/06 01:05:42;;;;;;;24.00;13.47;;;;;;;5.54;56.26;101331.41;5049156;28;20167;-78
2022/03/06 01:08:09;;;;;;;19.87;12.57;;;;;;;5.45;56.18;101301.41;5047540;28;20184;-78
2022/03/06 01:10:36;;;;;;;20.90;12.23;;;;;;;5.53;55.33;101321.94;5041754;28;20207;-78
2022/03/06 01:13:03;;;;;;;20.30;12.70;;;;;;;5.54;55.42;101335.56;5042043;28;20254;-78
2022/03/06 01:15:29;;;;;;;22.97;12.17;;;;;;;5.54;54.98;101335.56;5043135;28;20200;-79
2022/03/06 01:17:55;;;;;;;19.77;12.07;;;;;;;5.49;55.20;101332.47;5040622;28;20272;-79
2022/03/06 01:20:22;;;;;;;20.70;11.85;;;;;;;5.53;54.59;101336.31;5033095;28;20587;-78
2022/03/06 01:22:48;;;;;;;22.77;11.75;;;;;;;5.43;54.70;101310.50;5032825;28;20183;-79
2022/03/06 01:25:13;;;;;;;21.02;12.15;;;;;;;5.46;53.71;101311.78;5032200;28;20282;-78
2022/03/06 01:27:39;;;;;;;16.20;10.50;;;;;;;5.53;54.38;101315.97;5032285;28;20233;-78
2022/03/06 01:30:08;;;;;;;18.07;10.73;;;;;;;5.48;53.85;101307.78;5031650;28;20249;-78
2022/03/06 01:32:34;;;;;;;17.97;10.50;;;;;;;5.45;54.12;101297.25;5031730;28;20168;-78
2022/03/06 01:35:00;;;;;;;18.10;10.37;;;;;;;5.48;53.43;101304.31;5031391;28;20266;-78
2022/03/06 01:37:26;;;;;;;15.13;9.93;;;;;;;5.45;53.15;101293.78;5031579;28;20179;-78
2022/03/06 01:39:51;;;;;;;17.90;10.13;;;;;;;5.12;53.37;101247.44;5031674;28;20283;-78
2022/03/06 01:42:17;;;;;;;21.40;11.13;;;;;;;5.22;53.21;101260.50;5030223;28;20180;-79
2022/03/06 01:44:50;;;;;;;19.87;12.10;;;;;;;5.03;53.40;101231.97;5031664;28;20174;-79
2022/03/06 01:47:40;;;;;;;20.83;11.30;;;;;;;5.24;53.89;101285.41;5031101;28;20202;-79
2022/03/06 01:50:18;;;;;;;19.87;10.87;;;;;;;5.21;53.38;101282.47;5031525;28;20176;-79
2022/03/06 01:52:45;;;;;;;20.50;11.83;;;;;;;5.19;53.60;101283.91;5031529;28;20175;-79
2022/03/06 01:55:12;;;;;;;20.00;11.33;;;;;;;5.15;53.74;101281.72;5031559;28;20176;-79
2022/03/06 01:57:39;;;;;;;17.60;10.73;;;;;;;5.16;54.23;101292.78;5031119;28;20227;-78
2022/03/06 02:00:08;;;;;;;17.43;10.10;;;;;;;5.11;53.75;101294.78;5031496;28;20237;-77
2022/03/06 02:02:34;;;;;;;19.67;10.43;;;;;;;5.03;54.24;101280.22;5031590;28;20187;-79
2022/03/06 02:05:00;;;;;;;19.87;11.07;;;;;;;5.00;54.21;101282.41;5031313;28;20551;-78
2022/03/06 02:07:26;;;;;;;19.10;10.20;;;;;;;5.04;53.80;101305.81;5031309;28;20647;-79
2022/03/06 02:09:52;;;;;;;15.57;10.27;;;;;;;5.00;53.79;101300.19;5031565;28;20308;-78
2022/03/06 02:12:23;;;;;;;18.37;9.80;;;;;;;5.00;54.17;101305.25;5030127;28;20251;-79
2022/03/06 02:14:54;;;;;;;17.60;10.37;;;;;;;4.91;54.23;101304.13;5031603;28;20164;-79
2022/03/06 02:17:21;;;;;;;17.23;10.10;;;;;;;4.92;54.31;101303.38;5031364;28;20179;-79
2022/03/06 02:20:10;;;;;;;17.60;10.33;;;;;;;4.91;53.94;101307.56;5031454;28;20176;-78
2022/03/06 02:22:38;;;;;;;16.97;9.33;;;;;;;4.90;54.37;101312.47;5023258;28;20188;-80
2022/03/06 02:25:07;;;;;;;16.97;10.13;;;;;;;4.84;54.66;101318.59;5031004;28;20651;-79
2022/03/06 02:27:33;;;;;;;22.90;10.87;;;;;;;4.78;55.88;101307.69;5031122;28;20261;-79
2022/03/06 02:29:59;;;;;;;23.40;12.40;;;;;;;4.71;56.92;101317.81;5032290;28;20188;-79
2022/03/06 02:32:24;;;;;;;21.43;12.53;;;;;;;4.62;57.63;101303.97;5034997;28;20184;-79
2022/03/06 02:34:51;;;;;;;23.93;13.10;;;;;;;4.56;58.58;101313.38;5033752;28;20195;-78
2022/03/06 02:37:19;;;;;;;24.67;13.00;;;;;;;4.55;58.52;101320.06;5034974;28;20184;-78
2022/03/06 02:39:46;;;;;;;22.93;12.17;;;;;;;4.50;58.44;101317.69;5035196;28;20172;-78
2022/03/06 02:42:30;;;;;;;22.20;12.80;;;;;;;4.42;58.87;101318.34;5034603;28;20172;-79
2022/03/06 02:44:58;;;;;;;25.20;12.77;;;;;;;4.34;59.35;101315.75;5034837;28;20219;-79
2022/03/06 02:47:24;;;;;;;24.63;13.03;;;;;;;4.31;59.05;101320.44;5034404;28;20180;-79
2022/03/06 02:49:49;;;;;;;25.43;12.40;;;;;;;4.27;59.45;101323.31;5034525;28;20188;-79
2022/03/06 02:52:15;;;;;;;21.43;12.30;;;;;;;4.25;60.23;101328.91;5034364;28;20283;-80
2022/03/06 02:54:40;;;;;;;24.37;13.37;;;;;;;4.20;59.37;101322.34;5035103;28;20180;-79
2022/03/06 02:57:07;;;;;;;22.10;12.97;;;;;;;4.07;60.10;101302.13;5034952;28;20709;-80
2022/03/06 02:59:34;;;;;;;23.27;12.80;;;;;;;4.16;60.32;101321.94;5035477;28;20216;-80
2022/03/06 03:02:00;;;;;;;21.17;12.00;;;;;;;4.05;59.17;101293.41;5045361;28;20184;-78
2022/03/06 03:04:26;;;;;;;22.67;12.07;;;;;;;4.11;59.83;101315.41;5050720;28;20180;-79
2022/03/06 03:06:52;;;;;;;21.77;11.93;;;;;;;4.07;59.88;101312.28;5048717;28;20179;-79
2022/03/06 03:09:20;;;;;;;20.60;10.80;;;;;;;4.04;59.84;101317.84;5049139;28;20244;-79
2022/03/06 03:11:50;;;;;;;21.63;12.00;;;;;;;4.04;60.21;101322.03;5039275;28;20253;-79
2022/03/06 03:14:16;;;;;;;25.67;12.27;;;;;;;4.02;60.30;101313.31;5034511;28;20176;-79
2022/03/06 03:16:42;;;;;;;19.20;10.87;;;;;;;3.71;59.93;101268.88;5034245;28;20172;-78
2022/03/06 03:19:08;;;;;;;22.07;10.67;;;;;;;3.98;60.17;101322.16;5034527;28;20202;-78
2022/03/06 03:21:33;;;;;;;19.00;11.03;;;;;;;3.96;59.50;101322.66;5033996;28;20666;-77
2022/03/06 03:23:59;;;;;;;19.93;11.50;;;;;;;3.93;60.15;101319.03;5034129;28;20183;-79
2022/03/06 03:26:25;;;;;;;19.97;11.37;;;;;;;3.82;60.45;101314.22;5034098;28;20176;-79
2022/03/06 03:28:51;;;;;;;25.70;12.37;;;;;;;3.86;59.89;101320.59;5034494;28;20235;-76
2022/03/06 03:31:17;;;;;;;21.40;11.70;;;;;;;3.78;60.67;101301.88;5034023;28;20184;-79
2022/03/06 03:33:43;;;;;;;21.03;11.90;;;;;;;3.79;61.24;101315.47;5033531;28;20200;-79
2022/03/06 03:36:08;;;;;;;22.20;11.67;;;;;;;3.72;61.66;101316.31;5033950;28;20168;-79
2022/03/06 03:38:34;;;;;;;25.57;12.77;;;;;;;3.74;61.78;101321.56;5033415;28;20199;-79
2022/03/06 03:41:01;;;;;;;24.90;12.53;;;;;;;3.72;62.27;101334.06;5033321;28;20168;-78
2022/03/06 03:43:27;;;;;;;21.30;11.53;;;;;;;3.59;62.36;101321.44;5033304;28;20665;-78
2022/03/06 03:45:53;;;;;;;22.10;11.97;;;;;;;3.59;61.99;101321.44;5033598;28;20667;-78
2022/03/06 03:48:18;;;;;;;20.67;11.80;;;;;;;3.57;62.15;101324.47;5033564;28;20233;-80
2022/03/06 03:50:44;;;;;;;23.70;11.87;;;;;;;3.42;62.73;101320.88;5033823;28;20255;-79
2022/03/06 03:53:10;;;;;;;23.80;13.90;;;;;;;3.47;63.03;101340.13;5033387;28;20601;-80
2022/03/06 03:55:35;;;;;;;22.90;12.63;;;;;;;3.43;63.37;101345.53;5033571;28;20186;-79
2022/03/06 03:58:01;;;;;;;18.00;11.37;;;;;;;3.43;63.67;101342.97;5033760;28;20261;-81
2022/03/06 04:00:26;;;;;;;23.00;11.47;;;;;;;3.43;63.42;101351.50;5033407;28;20659;-80
2022/03/06 04:02:52;;;;;;;20.17;11.93;;;;;;;3.36;63.51;101360.59;5033312;28;20211;-81
2022/03/06 04:05:17;;;;;;;23.07;11.87;;;;;;;3.22;64.51;101333.50;5033163;28;20646;-80
2022/03/06 04:07:43;;;;;;;21.07;11.17;;;;;;;3.36;63.57;101361.50;5033265;28;20184;-80
2022/03/06 04:10:09;;;;;;;20.50;11.73;;;;;;;3.35;64.14;101372.38;5033561;28;20199;-79
2022/03/06 04:12:34;;;;;;;19.30;10.80;;;;;;;3.33;63.53;101370.34;5033040;28;20164;-80
2022/03/06 04:15:00;;;;;;;20.13;11.47;;;;;;;3.34;63.95;101373.09;5033113;28;20218;-81
2022/03/06 04:17:25;;;;;;;20.70;11.50;;;;;;;3.33;63.88;101367.81;5033221;28;20278;-79
2022/03/06 04:19:51;;;;;;;19.53;11.27;;;;;;;3.25;63.50;101351.63;5032940;28;20204;-79
2022/03/06 04:22:16;;;;;;;20.17;11.60;;;;;;;3.32;64.32;101363.47;5033707;28;20263;-80
2022/03/06 04:24:42;;;;;;;22.43;11.90;;;;;;;3.25;64.24;101366.81;5036432;28;20172;-80
2022/03/06 04:27:08;;;;;;;20.93;11.77;;;;;;;3.23;64.75;101364.06;5034961;28;20172;-79
2022/03/06 04:29:33;;;;;;;27.23;12.87;;;;;;;3.16;64.55;101368.16;5033837;28;20237;-81
2022/03/06 04:31:59;;;;;;;29.53;15.57;;;;;;;3.13;65.18;101365.22;5033000;28;20670;-81
2022/03/06 04:34:25;;;;;;;28.60;13.77;;;;;;;3.06;65.46;101370.19;5034464;28;20223;-80
2022/03/06 04:36:50;;;;;;;22.07;13.63;;;;;;;3.04;65.25;101366.53;5038223;28;20176;-80
2022/03/06 04:39:16;;;;;;;24.53;12.20;;;;;;;3.03;65.91;101360.56;5033038;28;20211;-80
2022/03/06 04:41:42;;;;;;;24.40;12.73;;;;;;;2.98;65.61;101366.66;5032431;28;20180;-80
2022/03/06 04:44:07;;;;;;;24.87;13.83;;;;;;;2.97;66.11;101358.13;5032149;28;20231;-79
2022/03/06 04:46:33;;;;;;;25.27;12.70;;;;;;;2.93;66.42;101365.16;5032540;28;20203;-80
2022/03/06 04:48:59;;;;;;;22.27;12.17;;;;;;;2.94;66.38;101357.75;5032485;28;20408;-80
2022/03/06 04:51:27;;;;;;;24.43;13.03;;;;;;;2.91;66.62;101364.03;5032736;28;20632;-80
2022/03/06 04:53:52;;;;;;;21.50;12.80;;;;;;;2.93;66.33;101365.16;5032668;28;20180;-81
2022/03/06 04:56:18;;;;;;;22.20;11.93;;;;;;;2.93;66.62;101366.06;5032947;28;20167;-81
2022/03/06 04:58:43;;;;;;;22.87;12.33;;;;;;;2.94;66.33;101365.34;5032398;28;20203;-79
2022/03/06 05:01:09;;;;;;;25.03;12.97;;;;;;;2.92;66.88;101369.28;5032703;28;20180;-82
2022/03/06 05:03:34;;;;;;;26.90;13.17;;;;;;;2.93;66.61;101365.16;5032954;28;20176;-80
2022/03/06 05:06:00;;;;;;;21.57;12.23;;;;;;;2.86;66.74;101344.78;5032666;28;20643;-83
2022/03/06 05:08:27;;;;;;;22.33;12.07;;;;;;;3.01;66.07;101367.03;5031102;28;20176;-81
2022/03/06 05:10:54;;;;;;;22.87;12.00;;;;;;;3.00;65.93;101371.19;5032427;28;20270;-82
2022/03/06 05:13:21;;;;;;;24.50;13.57;;;;;;;3.07;65.61;101369.47;5032001;28;20178;-82
2022/03/06 05:15:47;;;;;;;25.40;13.23;;;;;;;3.11;65.43;101375.13;5032039;28;20180;-80
2022/03/06 05:18:13;;;;;;;28.20;13.43;;;;;;;3.11;65.37;101376.75;5032045;28;20315;-80
2022/03/06 05:20:39;;;;;;;22.50;12.37;;;;;;;3.17;64.94;101380.09;5031856;28;20251;-80
2022/03/06 05:23:04;;;;;;;26.57;13.33;;;;;;;3.19;65.04;101383.75;5032380;28;20176;-82
2022/03/06 05:25:30;;;;;;;22.63;12.17;;;;;;;3.13;64.74;101365.22;5032004;28;20692;-82
2022/03/06 05:27:56;;;;;;;18.67;12.00;;;;;;;2.98;64.57;101337.16;5031616;28;20188;-82
2022/03/06 05:30:22;;;;;;;22.40;12.77;;;;;;;3.33;64.63;101388.06;5032345;28;20180;-82
2022/03/06 05:32:48;;;;;;;26.70;11.77;;;;;;;3.38;64.91;101380.38;5032775;28;20662;-83
2022/03/06 05:35:13;;;;;;;28.37;13.53;;;;;;;3.42;64.82;101387.66;5032824;28;20204;-81
2022/03/06 05:37:40;;;;;;;19.40;11.93;;;;;;;3.48;64.45;101385.00;5032197;28;20208;-83
2022/03/06 05:40:07;;;;;;;22.80;12.23;;;;;;;3.49;64.60;101379.25;5032135;28;20176;-82
2022/03/06 05:42:34;;;;;;;24.50;13.20;;;;;;;3.51;63.94;101375.28;5031797;28;20223;-82
2022/03/06 05:44:59;;;;;;;21.07;12.17;;;;;;;3.59;64.46;101384.78;5034807;28;20172;-83
2022/03/06 05:47:27;;;;;;;27.13;12.77;;;;;;;3.51;64.57;101359.16;5031033;28;20191;-82
2022/03/06 05:49:53;;;;;;;29.13;13.50;;;;;;;3.62;64.52;101380.13;5032542;28;20176;-81
2022/03/06 05:52:18;;;;;;;30.23;14.40;;;;;;;3.62;63.96;101379.22;5032657;28;20182;-82
2022/03/06 05:54:44;;;;;;;25.13;13.43;;;;;;;3.67;64.36;101376.53;5032049;28;20202;-80
2022/03/06 05:57:09;;;;;;;23.37;12.37;;;;;;;3.74;64.03;101380.78;5032049;28;20188;-82
2022/03/06 05:59:35;;;;;;;26.13;13.00;;;;;;;3.79;64.62;101381.38;5033514;28;20200;-83
2022/03/06 06:02:01;;;;;;;22.53;13.37;;;;;;;3.84;64.10;101381.25;5032515;28;20647;-82
2022/03/06 06:04:26;;;;;;;25.33;12.20;;;;;;;3.85;64.30;101384.69;5033015;28;20179;-81
2022/03/06 06:06:52;;;;;;;24.30;12.97;;;;;;;3.91;63.94;101385.47;5036539;28;20275;-84
2022/03/06 06:09:18;;;;;;;21.57;12.47;;;;;;;3.89;64.03;101387.84;5038049;28;20168;-82
2022/03/06 06:11:43;;;;;;;23.83;12.13;;;;;;;3.87;63.63;101381.66;5036741;28;20635;-86
2022/03/06 06:14:09;;;;;;;21.23;12.10;;;;;;;3.96;63.05;101383.53;5036570;28;20823;-84
2022/03/06 06:16:34;;;;;;;20.23;11.87;;;;;;;3.79;63.28;101372.13;5035438;28;20707;-79
2022/03/06 06:19:01;;;;;;;23.50;11.93;;;;;;;3.90;63.51;101387.13;5035322;28;20586;-83
2022/03/06 06:21:26;;;;;;;21.33;11.60;;;;;;;3.85;63.72;101367.84;5035490;28;20196;-80
2022/03/06 06:23:52;;;;;;;20.73;11.60;;;;;;;4.02;64.00;101391.91;5035087;28;20261;-81
2022/03/06 06:26:18;;;;;;;22.17;11.57;;;;;;;4.03;63.33;101376.00;5034878;28;20565;-80
2022/03/06 06:28:43;;;;;;;21.40;11.73;;;;;;;4.05;63.07;101372.03;5035025;28;20172;-79
2022/03/06 06:31:09;;;;;;;21.40;12.03;;;;;;;4.15;63.10;101378.47;5034677;28;20183;-81
2022/03/06 06:33:35;;;;;;;20.23;11.83;;;;;;;4.12;62.97;101375.56;5035206;28;20276;-82
2022/03/06 06:36:02;;;;;;;23.47;12.27;;;;;;;4.20;63.12;101379.03;5037253;28;20175;-83
2022/03/06 06:38:28;;;;;;;16.27;10.13;;;;;;;4.24;62.63;101387.97;5035906;28;20228;-82
2022/03/06 06:40:54;;;;;;;17.43;11.30;;;;;;;4.23;62.78;101389.59;5035295;28;20575;-80
2022/03/06 06:43:20;;;;;;;20.93;11.20;;;;;;;4.15;62.84;101359.81;5036106;28;20227;-82
2022/03/06 06:45:46;;;;;;;19.27;10.50;;;;;;;4.31;62.69;101385.50;5035721;28;20589;-82
2022/03/06 06:48:11;;;;;;;18.33;9.97;;;;;;;4.38;61.87;101393.16;5035452;28;20595;-81
2022/03/06 06:50:37;;;;;;;18.77;11.03;;;;;;;4.40;61.71;101386.66;5036509;28;20184;-80
2022/03/06 06:53:03;;;;;;;21.23;11.07;;;;;;;4.49;63.09;101394.53;5038168;28;20199;-82
2022/03/06 06:55:28;;;;;;;25.47;10.40;;;;;;;4.55;62.68;101385.16;5038534;28;20659;-78
2022/03/06 06:57:54;;;;;;;19.17;11.40;;;;;;;4.67;61.43;101404.44;5040465;28;20635;-83
2022/03/06 07:00:20;;;;;;;18.40;10.43;;;;;;;4.75;60.76;101402.88;5041697;28;20731;-83
2022/03/06 07:02:46;;;;;;;17.33;10.30;;;;;;;4.51;61.01;101352.47;5036174;28;20207;-83
2022/03/06 07:05:12;;;;;;;17.87;9.63;;;;;;;4.73;60.41;101389.06;5035451;28;20168;-85
2022/03/06 07:07:37;;;;;;;17.87;10.70;;;;;;;4.84;60.48;101398.94;5036503;28;20180;-82
2022/03/06 07:10:04;;;;;;;18.63;10.43;;;;;;;4.81;60.72;101391.84;5034735;28;20230;-82
2022/03/06 07:12:30;;;;;;;18.00;10.30;;;;;;;4.94;59.83;101407.00;5034657;28;20172;-83
2022/03/06 07:14:56;;;;;;;61.00;29.63;;;;;;;4.99;59.77;101394.88;5034769;28;20541;-82
2022/03/06 07:17:21;;;;;;;39.43;22.57;;;;;;;5.06;59.78;101408.53;5032969;28;20187;-81
2022/03/06 07:19:47;;;;;;;22.53;10.47;;;;;;;5.12;59.25;101410.00;5035138;28;20176;-79
2022/03/06 07:22:15;;;;;;;16.33;9.13;;;;;;;5.15;59.65;101402.78;5035104;28;20178;-80
2022/03/06 07:24:41;;;;;;;15.53;10.37;;;;;;;5.19;59.49;101399.88;5035233;28;20259;-80
2022/03/06 07:27:06;;;;;;;18.10;9.97;;;;;;;5.22;58.85;101400.25;5034026;28;20263;-79
2022/03/06 07:29:32;;;;;;;18.10;10.67;;;;;;;5.20;58.99;101400.09;5034346;28;20187;-78
2022/03/06 07:31:57;;;;;;;17.30;10.00;;;;;;;5.29;58.73;101396.09;5033894;28;20176;-78
2022/03/06 07:34:23;;;;;;;18.13;10.40;;;;;;;5.38;58.80;101383.63;5034086;28;20254;-77
2022/03/06 07:36:48;;;;;;;18.27;9.63;;;;;;;5.54;58.26;101394.03;5033180;28;20168;-81
2022/03/06 07:39:15;;;;;;;17.67;9.97;;;;;;;5.60;57.90;101386.25;5016278;28;20203;-77
2022/03/06 07:41:40;;;;;;;13.97;8.97;;;;;;;5.64;56.98;101388.44;5034326;28;20251;-79
2022/03/06 07:44:06;;;;;;;17.50;10.63;;;;;;;5.73;57.18;101382.88;5034229;28;20638;-81
2022/03/06 07:46:37;;;;;;;13.63;9.23;;;;;;;5.83;56.78;101377.25;5036451;28;20559;-84
2022/03/06 07:49:03;;;;;;;13.63;8.20;;;;;;;6.04;56.59;101383.13;5038610;28;20558;-81
2022/03/06 07:51:29;;;;;;;17.77;8.93;;;;;;;6.20;56.29;101385.16;5035765;28;20740;-78
2022/03/06 07:53:54;;;;;;;15.73;9.00;;;;;;;6.40;56.79;101384.97;5023360;28;20260;-79
2022/03/06 07:56:20;;;;;;;17.17;9.00;;;;;;;6.59;56.34;101384.59;5012959;28;20179;-80
2022/03/06 07:58:45;;;;;;;12.38;7.57;;;;;;;6.70;54.95;101377.50;5012609;28;20286;-80
2022/03/06 08:01:13;;;;;;;12.68;8.38;;;;;;;6.84;53.75;101378.19;5016483;28;20179;-81
2022/03/06 08:03:38;;;;;;;13.10;8.45;;;;;;;7.00;53.21;101379.25;5017587;28;20179;-81
2022/03/06 08:06:04;;;;;;;11.48;7.25;;;;;;;7.14;52.69;101368.13;5013374;28;20177;-80
2022/03/06 08:08:29;;;;;;;12.60;6.90;;;;;;;7.14;51.87;101357.91;5014177;28;20169;-79
2022/03/06 08:10:55;;;;;;;9.93;6.95;;;;;;;7.20;51.13;101365.38;5011051;28;20169;-82
2022/03/06 08:13:20;;;;;;;15.35;7.47;;;;;;;7.25;51.27;101369.34;5011940;28;20184;-79
2022/03/06 08:15:46;;;;;;;14.40;7.78;;;;;;;7.27;51.52;101372.97;5013059;28;20176;-81
2022/03/06 08:18:11;;;;;;;44.15;23.00;;;;;;;6.94;50.68;101318.28;5013103;28;20691;-82
2022/03/06 08:20:37;;;;;;;26.35;13.43;;;;;;;7.28;50.41;101374.78;5012145;28;20207;-81
2022/03/06 08:23:03;;;;;;;15.80;7.57;;;;;;;7.20;50.66;101371.38;5014873;28;20165;-85
2022/03/06 08:25:29;;;;;;;13.82;8.13;;;;;;;7.23;51.72;101373.34;5014560;28;20188;-83
2022/03/06 08:27:54;;;;;;;12.05;7.57;;;;;;;7.23;51.86;101353.88;5013636;28;20173;-78
2022/03/06 08:30:21;;;;;;;9.13;7.28;;;;;;;7.35;50.74;101372.19;5014232;28;20251;-82
2022/03/06 08:32:47;;;;;;;12.15;7.47;;;;;;;7.35;50.80;101355.28;5019847;28;20184;-83
2022/03/06 08:35:12;;;;;;;13.10;7.57;;;;;;;7.28;50.50;101355.31;5018945;28;20181;-82
2022/03/06 08:37:38;;;;;;;12.18;8.13;;;;;;;7.28;50.58;101362.94;5017577;28;20181;-81
2022/03/06 08:40:04;;;;;;;13.02;8.07;;;;;;;7.36;51.09;101351.09;5016867;28;20185;-83
2022/03/06 08:42:30;;;;;;;12.55;7.75;;;;;;;7.38;51.81;101341.97;5021651;28;20223;-82
2022/03/06 08:44:56;;;;;;;14.10;7.32;;;;;;;7.50;50.19;101351.00;5025689;28;20177;-81
2022/03/06 08:47:21;;;;;;;12.82;6.80;;;;;;;7.62;49.55;101356.59;5033038;28;20177;-85
2022/03/06 08:49:47;;;;;;;12.88;8.85;;;;;;;7.57;50.10;101370.47;5031157;28;20203;-83
2022/03/06 08:52:13;;;;;;;13.55;8.43;;;;;;;7.43;49.75;101357.78;5031187;28;20243;-83
2022/03/06 08:54:39;;;;;;;15.75;8.95;;;;;;;7.50;49.63;101352.66;5025976;28;20194;-83
2022/03/06 08:57:05;;;;;;;14.43;7.65;;;;;;;7.49;49.93;101359.41;5029809;28;20164;-85
2022/03/06 08:59:30;;;;;;;11.57;7.65;;;;;;;7.49;49.28;101368.69;5027962;28;20215;-80
2022/03/06 09:01:56;;;;;;;10.40;7.15;;;;;;;7.34;49.88;101345.81;5029300;28;20191;-82
2022/03/06 09:04:23;;;;;;;12.63;7.00;;;;;;;7.37;49.00;101375.84;5035586;28;20202;-82
2022/03/06 09:06:50;;;;;;;12.38;7.50;;;;;;;7.26;49.26;101366.97;5035200;28;20196;-85
2022/03/06 09:09:15;;;;;;;14.63;8.57;;;;;;;7.37;49.52;101373.31;5028138;28;20525;-81
2022/03/06 09:11:41;;;;;;;36.88;19.80;;;;;;;7.35;49.40;101378.25;5032478;28;20447;-81
2022/03/06 09:14:07;;;;;;;14.30;8.88;;;;;;;7.26;49.87;101376.25;5035726;28;20187;-80
2022/03/06 09:16:33;;;;;;;12.77;7.85;;;;;;;7.22;50.01;101358.78;5035751;28;20188;-83
2022/03/06 09:18:59;;;;;;;11.65;7.38;;;;;;;7.20;48.75;101355.19;5035257;28;20224;-83
2022/03/06 09:21:25;;;;;;;10.27;7.13;;;;;;;7.25;48.74;101365.16;5029066;28;20526;-87
2022/03/06 09:23:51;;;;;;;11.60;7.82;;;;;;;7.18;48.53;101354.97;5028362;28;20207;-82
2022/03/06 09:26:17;;;;;;;12.18;7.22;;;;;;;7.21;48.37;101354.44;5027587;28;20184;-84
2022/03/06 09:28:42;;;;;;;16.27;8.38;;;;;;;7.20;48.31;101366.28;5026876;28;20557;-83
2022/03/06 09:31:08;;;;;;;10.40;6.68;;;;;;;7.22;48.07;101359.69;5014872;28;20184;-83
2022/03/06 09:33:33;;;;;;;10.20;7.10;;;;;;;7.13;48.20;101343.34;5013794;28;20201;-82
2022/03/06 09:36:01;;;;;;;12.00;7.63;;;;;;;7.25;48.32;101357.50;5011997;28;20189;-86
2022/03/06 09:38:27;;;;;;;10.68;7.47;;;;;;;7.17;49.17;101345.53;5013169;28;20295;-85
2022/03/06 09:40:54;;;;;;;65.78;11.48;;;;;;;7.32;48.67;101346.34;5012247;28;20192;-84
2022/03/06 09:43:19;;;;;;;10.52;6.90;;;;;;;7.37;48.56;101366.56;5014180;28;20976;-86
2022/03/06 09:45:47;;;;;;;15.35;8.23;;;;;;;7.46;48.13;101353.94;5013167;28;20239;-84
2022/03/06 09:48:16;;;;;;;13.25;8.18;;;;;;;7.50;47.76;101360.31;5012357;28;20169;-85
2022/03/06 09:50:44;;;;;;;24.23;9.10;;;;;;;7.26;48.01;101328.75;5012171;28;20187;-83
2022/03/06 09:53:09;;;;;;;10.52;7.15;;;;;;;7.45;48.00;101351.25;5012186;28;20188;-85
2022/03/06 09:55:35;;;;;;;12.40;7.82;;;;;;;7.38;49.02;101340.34;5012296;28;20172;-85
2022/03/06 09:58:01;;;;;;;13.23;7.05;;;;;;;7.50;48.28;101351.00;5011550;28;20193;-87
2022/03/06 10:00:27;;;;;;;10.00;7.55;;;;;;;7.51;48.34;101351.94;5012876;28;20168;-85
2022/03/06 10:02:59;;;;;;;11.52;7.72;;;;;;;7.51;48.07;101345.19;5012306;28;20598;-85
2022/03/06 10:05:38;;;;;;;9.63;6.35;;;;;;;7.43;47.99;101347.59;5012810;28;20211;-86
2022/03/06 10:08:26;;;;;;;9.18;6.35;;;;;;;7.31;47.92;101340.34;5013177;28;20227;-83
2022/03/06 10:11:04;;;;;;;10.82;6.30;;;;;;;7.25;48.06;101348.94;5013152;28;20177;-84
2022/03/06 10:13:43;;;;;;;11.45;6.43;;;;;;;7.09;48.52;101334.44;5017432;28;20544;-86
2022/03/06 10:16:19;;;;;;;10.05;6.22;;;;;;;7.08;48.35;101325.00;5017443;28;20200;-86
2022/03/06 10:18:46;;;;;;;13.38;8.40;;;;;;;6.94;48.96;101330.13;5013641;28;20192;-84
2022/03/06 10:21:36;;;;;;;15.07;9.20;;;;;;;6.94;49.27;101323.38;5016709;28;20204;-85
2022/03/06 10:24:08;;;;;;;11.97;7.57;;;;;;;6.91;49.23;101324.66;5021652;28;20199;-85
2022/03/06 10:26:36;;;;;;;9.77;6.43;;;;;;;6.92;49.06;101318.88;5015424;28;20184;-85
2022/03/06 10:29:12;;;;;;;11.95;7.15;;;;;;;6.99;49.29;101313.72;5019714;28;20200;-84
2022/03/06 10:31:54;;;;;;;10.07;6.35;;;;;;;7.00;48.97;101320.63;5022012;28;20175;-87
2022/03/06 10:34:33;;;;;;;12.55;7.47;;;;;;;6.99;48.65;101313.72;5023541;28;20189;-87
2022/03/06 10:37:01;;;;;;;15.90;8.15;;;;;;;6.93;48.40;101277.34;5028224;28;20172;-86
2022/03/06 10:39:27;;;;;;;11.18;6.53;;;;;;;6.98;49.22;101306.84;5015119;28;20220;-85
2022/03/06 10:41:54;;;;;;;8.60;6.15;;;;;;;7.05;48.91;101295.69;5035147;28;20168;-83
2022/03/06 10:44:23;;;;;;;10.55;6.47;;;;;;;7.09;48.44;101297.84;5036038;28;20280;-83
2022/03/06 10:46:59;;;;;;;12.95;7.13;;;;;;;7.09;48.94;101285.13;5011353;28;20173;-80
2022/03/06 10:49:28;;;;;;;11.52;7.55;;;;;;;7.10;48.64;101269.09;5029256;28;20184;-76
2022/03/06 10:51:54;;;;;;;11.43;7.03;;;;;;;7.02;48.85;101252.03;5014395;28;20185;-80
2022/03/06 10:54:20;;;;;;;11.55;6.93;;;;;;;7.21;48.18;101275.41;5020752;28;20782;-76
2022/03/06 10:56:50;;;;;;;10.85;6.10;;;;;;;7.20;48.42;101271.06;5014848;28;20181;-76
2022/03/06 10:59:21;;;;;;;11.52;8.00;;;;;;;7.26;48.72;101274.28;5016717;28;20213;-78
2022/03/06 11:01:48;;;;;;;12.70;7.53;;;;;;;7.25;48.61;101258.09;5014989;28;20173;-75
2022/03/06 11:04:16;;;;;;;9.55;6.43;;;;;;;7.31;48.60;101271.53;5014936;28;20179;-76
2022/03/06 11:06:43;;;;;;;10.77;7.15;;;;;;;7.28;48.16;101255.88;5018664;28;20177;-77
2022/03/06 11:09:13;;;;;;;10.88;6.30;;;;;;;7.29;48.46;101270.47;5015195;28;20183;-78
2022/03/06 11:11:41;;;;;;;11.25;6.90;;;;;;;7.34;49.03;101265.88;5016503;28;20177;-76
2022/03/06 11:14:07;;;;;;;15.32;6.47;;;;;;;7.34;48.89;101255.69;5015049;28;20177;-80
2022/03/06 11:16:34;;;;;;;8.40;5.90;;;;;;;7.45;48.34;101251.81;5015318;28;20176;-77
2022/03/06 11:18:59;;;;;;;12.27;6.65;;;;;;;7.46;48.00;101254.50;5015631;28;20247;-76